sensor_id;sensor_type;location;lat;lon;timestamp;temperature;humidity
14531;DHT22;7352;50.866;4.366;2022-10-23T00:00:24;17.80;99.90
14531;DHT22;7352;50.866;4.366;2022-10-23T00:02:51;17.80;99.90
14531;DHT22;7352;50.866;4.366;2022-10-23T00:05:19;17.90;99.90
14531;DHT22;7352;50.866;4.366;2022-10-23T00:07:49;17.80;99.90
14531;DHT22;7352;50.866;4.366;2022-10-23T00:10:17;17.70;99.90
14531;DHT22;7352;50.866;4.366;2022-10-23T00:12:45;17.70;99.90
14531;DHT22;7352;50.866;4.366;2022-10-23T00:15:14;17.80;99.90
14531;DHT22;7352;50.866;4.366;2022-10-23T00:17:41;17.80;99.90
14531;DHT22;7352;50.866;4.366;2022-10-23T00:20:10;17.70;99.90
14531;DHT22;7352;50.866;4.366;2022-10-23T00:22:38;17.60;99.90
14531;DHT22;7352;50.866;4.366;2022-10-23T00:25:07;17.80;99.90
14531;DHT22;7352;50.866;4.366;2022-10-23T00:27:35;17.70;99.90
14531;DHT22;7352;50.866;4.366;2022-10-23T00:30:04;17.60;99.90
14531;DHT22;7352;50.866;4.366;2022-10-23T00:32:32;17.60;99.90
14531;DHT22;7352;50.866;4.366;2022-10-23T00:34:59;17.60;99.90
14531;DHT22;7352;50.866;4.366;2022-10-23T00:37:27;17.50;99.90
14531;DHT22;7352;50.866;4.366;2022-10-23T00:39:54;17.60;99.90
14531;DHT22;7352;50.866;4.366;2022-10-23T00:42:22;17.60;99.90
14531;DHT22;7352;50.866;4.366;2022-10-23T00:45:18;17.70;99.90
14531;DHT22;7352;50.866;4.366;2022-10-23T00:47:48;17.70;99.90
14531;DHT22;7352;50.866;4.366;2022-10-23T00:50:18;17.70;99.90
14531;DHT22;7352;50.866;4.366;2022-10-23T00:52:48;17.60;99.90
14531;DHT22;7352;50.866;4.366;2022-10-23T00:55:17;17.70;99.90
14531;DHT22;7352;50.866;4.366;2022-10-23T00:57:47;17.70;99.90
14531;DHT22;7352;50.866;4.366;2022-10-23T01:00:19;17.70;99.90
14531;DHT22;7352;50.866;4.366;2022-10-23T01:02:48;17.60;99.90
14531;DHT22;7352;50.866;4.366;2022-10-23T01:05:15;17.60;99.90
14531;DHT22;7352;50.866;4.366;2022-10-23T01:07:49;17.60;99.90
14531;DHT22;7352;50.866;4.366;2022-10-23T01:10:22;17.50;99.90
14531;DHT22;7352;50.866;4.366;2022-10-23T01:12:56;17.50;99.90
14531;DHT22;7352;50.866;4.366;2022-10-23T01:15:30;17.50;99.90
14531;DHT22;7352;50.866;4.366;2022-10-23T01:18:03;17.60;99.90
14531;DHT22;7352;50.866;4.366;2022-10-23T01:20:39;17.70;99.90
14531;DHT22;7352;50.866;4.366;2022-10-23T01:23:21;17.70;99.90
14531;DHT22;7352;50.866;4.366;2022-10-23T01:25:59;17.60;99.90
14531;DHT22;7352;50.866;4.366;2022-10-23T01:28:31;17.60;99.90
14531;DHT22;7352;50.866;4.366;2022-10-23T01:31:01;17.60;99.90
14531;DHT22;7352;50.866;4.366;2022-10-23T01:33:32;17.60;99.90
14531;DHT22;7352;50.866;4.366;2022-10-23T01:36:04;17.60;99.90
14531;DHT22;7352;50.866;4.366;2022-10-23T01:38:37;17.70;99.90
14531;DHT22;7352;50.866;4.366;2022-10-23T01:41:10;17.70;99.90
14531;DHT22;7352;50.866;4.366;2022-10-23T01:43:44;17.70;99.90
14531;DHT22;7352;50.866;4.366;2022-10-23T01:46:15;17.60;99.90
14531;DHT22;7352;50.866;4.366;2022-10-23T01:48:46;17.60;99.90
14531;DHT22;7352;50.866;4.366;2022-10-23T01:51:16;17.60;99.90
14531;DHT22;7352;50.866;4.366;2022-10-23T01:53:46;17.70;99.90
14531;DHT22;7352;50.866;4.366;2022-10-23T01:56:16;17.60;99.90
14531;DHT22;7352;50.866;4.366;2022-10-23T01:58:49;17.70;99.90
14531;DHT22;7352;50.866;4.366;2022-10-23T02:01:22;17.70;99.90
14531;DHT22;7352;50.866;4.366;2022-10-23T02:03:50;17.80;99.90
14531;DHT22;7352;50.866;4.366;2022-10-23T02:06:17;17.60;99.90
14531;DHT22;7352;50.866;4.366;2022-10-23T02:08:44;17.60;99.90
14531;DHT22;7352;50.866;4.366;2022-10-23T02:11:13;17.70;99.90
14531;DHT22;7352;50.866;4.366;2022-10-23T02:13:44;17.80;99.90
14531;DHT22;7352;50.866;4.366;2022-10-23T02:16:22;17.80;99.90
14531;DHT22;7352;50.866;4.366;2022-10-23T02:18:54;17.70;99.90
14531;DHT22;7352;50.866;4.366;2022-10-23T02:21:30;17.70;99.90
14531;DHT22;7352;50.866;4.366;2022-10-23T02:24:01;17.60;99.90
14531;DHT22;7352;50.866;4.366;2022-10-23T02:26:33;17.60;99.90
14531;DHT22;7352;50.866;4.366;2022-10-23T02:29:05;17.70;99.90
14531;DHT22;7352;50.866;4.366;2022-10-23T02:31:34;17.70;99.90
14531;DHT22;7352;50.866;4.366;2022-10-23T02:34:01;17.70;99.90
14531;DHT22;7352;50.866;4.366;2022-10-23T02:36:28;17.60;99.90
14531;DHT22;7352;50.866;4.366;2022-10-23T02:38:55;17.50;99.90
14531;DHT22;7352;50.866;4.366;2022-10-23T02:44:38;17.50;99.90
14531;DHT22;7352;50.866;4.366;2022-10-23T02:47:18;17.60;99.90
14531;DHT22;7352;50.866;4.366;2022-10-23T02:49:52;17.60;99.90
14531;DHT22;7352;50.866;4.366;2022-10-23T02:52:26;17.50;99.90
14531;DHT22;7352;50.866;4.366;2022-10-23T02:55:04;17.50;99.90
14531;DHT22;7352;50.866;4.366;2022-10-23T02:57:36;17.50;99.90
14531;DHT22;7352;50.866;4.366;2022-10-23T03:00:07;17.50;99.90
14531;DHT22;7352;50.866;4.366;2022-10-23T03:02:39;17.60;99.90
14531;DHT22;7352;50.866;4.366;2022-10-23T03:05:11;17.60;99.90
14531;DHT22;7352;50.866;4.366;2022-10-23T03:07:40;17.60;99.90
14531;DHT22;7352;50.866;4.366;2022-10-23T03:10:08;17.60;99.90
14531;DHT22;7352;50.866;4.366;2022-10-23T03:12:35;17.60;99.90
14531;DHT22;7352;50.866;4.366;2022-10-23T03:15:03;17.50;99.90
14531;DHT22;7352;50.866;4.366;2022-10-23T03:17:30;17.50;99.90
14531;DHT22;7352;50.866;4.366;2022-10-23T03:19:59;17.70;99.90
14531;DHT22;7352;50.866;4.366;2022-10-23T03:22:26;17.60;99.90
14531;DHT22;7352;50.866;4.366;2022-10-23T03:24:53;17.50;99.90
14531;DHT22;7352;50.866;4.366;2022-10-23T03:27:20;17.40;99.90
14531;DHT22;7352;50.866;4.366;2022-10-23T03:29:47;17.50;99.90
14531;DHT22;7352;50.866;4.366;2022-10-23T03:32:14;17.50;99.90
14531;DHT22;7352;50.866;4.366;2022-10-23T03:34:41;17.70;99.90
14531;DHT22;7352;50.866;4.366;2022-10-23T03:37:09;17.80;99.90
14531;DHT22;7352;50.866;4.366;2022-10-23T03:39:36;17.70;99.90
14531;DHT22;7352;50.866;4.366;2022-10-23T03:42:03;17.70;99.90
14531;DHT22;7352;50.866;4.366;2022-10-23T03:44:30;17.70;99.90
14531;DHT22;7352;50.866;4.366;2022-10-23T03:46:58;17.80;99.90
14531;DHT22;7352;50.866;4.366;2022-10-23T03:49:25;17.70;99.90
14531;DHT22;7352;50.866;4.366;2022-10-23T03:51:52;17.70;99.90
14531;DHT22;7352;50.866;4.366;2022-10-23T03:54:22;17.70;99.90
14531;DHT22;7352;50.866;4.366;2022-10-23T03:56:50;17.70;99.90
14531;DHT22;7352;50.866;4.366;2022-10-23T03:59:18;17.70;99.90
14531;DHT22;7352;50.866;4.366;2022-10-23T04:01:45;17.60;99.90
14531;DHT22;7352;50.866;4.366;2022-10-23T04:04:13;17.60;99.90
14531;DHT22;7352;50.866;4.366;2022-10-23T04:06:40;17.50;99.90
14531;DHT22;7352;50.866;4.366;2022-10-23T04:09:07;17.60;99.90
14531;DHT22;7352;50.866;4.366;2022-10-23T04:11:36;17.70;99.90
14531;DHT22;7352;50.866;4.366;2022-10-23T04:14:03;17.60;99.90
14531;DHT22;7352;50.866;4.366;2022-10-23T04:16:30;17.70;99.90
14531;DHT22;7352;50.866;4.366;2022-10-23T04:18:59;17.50;99.90
14531;DHT22;7352;50.866;4.366;2022-10-23T04:21:26;17.40;99.90
14531;DHT22;7352;50.866;4.366;2022-10-23T04:23:53;17.60;99.90
14531;DHT22;7352;50.866;4.366;2022-10-23T04:26:20;17.50;99.90
14531;DHT22;7352;50.866;4.366;2022-10-23T04:28:50;17.50;99.90
14531;DHT22;7352;50.866;4.366;2022-10-23T04:31:17;17.50;99.90
14531;DHT22;7352;50.866;4.366;2022-10-23T04:33:44;17.50;99.90
14531;DHT22;7352;50.866;4.366;2022-10-23T04:36:11;17.50;99.90
14531;DHT22;7352;50.866;4.366;2022-10-23T04:38:38;17.60;99.90
14531;DHT22;7352;50.866;4.366;2022-10-23T04:41:11;17.40;99.90
14531;DHT22;7352;50.866;4.366;2022-10-23T04:43:38;17.40;99.90
14531;DHT22;7352;50.866;4.366;2022-10-23T04:46:07;17.40;99.90
14531;DHT22;7352;50.866;4.366;2022-10-23T04:48:37;17.60;99.90
14531;DHT22;7352;50.866;4.366;2022-10-23T04:51:05;17.50;99.90
14531;DHT22;7352;50.866;4.366;2022-10-23T04:53:38;17.60;99.90
14531;DHT22;7352;50.866;4.366;2022-10-23T04:56:21;17.60;99.90
14531;DHT22;7352;50.866;4.366;2022-10-23T04:58:54;17.50;99.90
14531;DHT22;7352;50.866;4.366;2022-10-23T05:01:22;17.40;99.90
14531;DHT22;7352;50.866;4.366;2022-10-23T05:03:49;17.40;99.90
14531;DHT22;7352;50.866;4.366;2022-10-23T05:06:20;17.40;99.90
14531;DHT22;7352;50.866;4.366;2022-10-23T05:09:10;17.40;99.90
14531;DHT22;7352;50.866;4.366;2022-10-23T05:11:50;17.50;99.90
14531;DHT22;7352;50.866;4.366;2022-10-23T05:14:19;17.50;99.90
14531;DHT22;7352;50.866;4.366;2022-10-23T05:16:50;17.40;99.90
14531;DHT22;7352;50.866;4.366;2022-10-23T05:19:21;17.50;99.90
14531;DHT22;7352;50.866;4.366;2022-10-23T05:21:49;17.50;99.90
14531;DHT22;7352;50.866;4.366;2022-10-23T05:24:20;17.60;99.90
14531;DHT22;7352;50.866;4.366;2022-10-23T05:26:47;17.60;99.90
14531;DHT22;7352;50.866;4.366;2022-10-23T05:29:16;17.70;99.90
14531;DHT22;7352;50.866;4.366;2022-10-23T05:31:43;17.60;99.90
14531;DHT22;7352;50.866;4.366;2022-10-23T05:34:13;17.60;99.90
14531;DHT22;7352;50.866;4.366;2022-10-23T05:36:41;17.80;99.90
14531;DHT22;7352;50.866;4.366;2022-10-23T05:39:08;17.90;99.90
14531;DHT22;7352;50.866;4.366;2022-10-23T05:41:35;17.80;99.90
14531;DHT22;7352;50.866;4.366;2022-10-23T05:44:02;17.80;99.90
14531;DHT22;7352;50.866;4.366;2022-10-23T05:46:29;17.70;99.90
14531;DHT22;7352;50.866;4.366;2022-10-23T05:48:56;17.70;99.90
14531;DHT22;7352;50.866;4.366;2022-10-23T05:51:25;17.80;99.90
14531;DHT22;7352;50.866;4.366;2022-10-23T05:54:23;17.70;99.90
14531;DHT22;7352;50.866;4.366;2022-10-23T05:57:00;17.60;99.90
14531;DHT22;7352;50.866;4.366;2022-10-23T05:59:28;17.70;99.90
14531;DHT22;7352;50.866;4.366;2022-10-23T06:02:00;17.60;99.90
14531;DHT22;7352;50.866;4.366;2022-10-23T06:04:27;17.60;99.90
14531;DHT22;7352;50.866;4.366;2022-10-23T06:06:59;17.60;99.90
14531;DHT22;7352;50.866;4.366;2022-10-23T06:09:26;17.50;99.90
14531;DHT22;7352;50.866;4.366;2022-10-23T06:11:53;17.40;99.90
14531;DHT22;7352;50.866;4.366;2022-10-23T06:14:20;17.50;99.90
14531;DHT22;7352;50.866;4.366;2022-10-23T06:16:47;17.40;99.90
14531;DHT22;7352;50.866;4.366;2022-10-23T06:19:14;17.40;99.90
14531;DHT22;7352;50.866;4.366;2022-10-23T06:21:41;17.50;99.90
14531;DHT22;7352;50.866;4.366;2022-10-23T06:24:09;17.40;99.90
14531;DHT22;7352;50.866;4.366;2022-10-23T06:26:36;17.60;99.90
14531;DHT22;7352;50.866;4.366;2022-10-23T06:29:03;17.50;99.90
14531;DHT22;7352;50.866;4.366;2022-10-23T06:31:30;17.50;99.90
14531;DHT22;7352;50.866;4.366;2022-10-23T06:33:58;17.40;99.90
14531;DHT22;7352;50.866;4.366;2022-10-23T06:36:26;17.40;99.90
14531;DHT22;7352;50.866;4.366;2022-10-23T06:38:53;17.40;99.90
14531;DHT22;7352;50.866;4.366;2022-10-23T06:41:22;17.40;99.90
14531;DHT22;7352;50.866;4.366;2022-10-23T06:43:50;17.40;99.90
14531;DHT22;7352;50.866;4.366;2022-10-23T06:46:18;17.60;99.90
14531;DHT22;7352;50.866;4.366;2022-10-23T06:48:45;17.50;99.90
14531;DHT22;7352;50.866;4.366;2022-10-23T06:51:13;17.60;99.90
14531;DHT22;7352;50.866;4.366;2022-10-23T06:53:41;17.70;99.90
14531;DHT22;7352;50.866;4.366;2022-10-23T06:56:09;17.70;99.90
14531;DHT22;7352;50.866;4.366;2022-10-23T06:58:39;17.70;99.90
14531;DHT22;7352;50.866;4.366;2022-10-23T07:01:08;17.60;99.90
14531;DHT22;7352;50.866;4.366;2022-10-23T07:03:35;17.60;99.90
14531;DHT22;7352;50.866;4.366;2022-10-23T07:06:03;17.70;99.90
14531;DHT22;7352;50.866;4.366;2022-10-23T07:08:31;17.80;99.90
14531;DHT22;7352;50.866;4.366;2022-10-23T07:11:02;17.90;99.90
14531;DHT22;7352;50.866;4.366;2022-10-23T07:13:29;18.00;99.90
14531;DHT22;7352;50.866;4.366;2022-10-23T07:15:57;18.10;99.90
14531;DHT22;7352;50.866;4.366;2022-10-23T07:18:24;18.10;99.90
14531;DHT22;7352;50.866;4.366;2022-10-23T07:20:57;18.20;99.90
14531;DHT22;7352;50.866;4.366;2022-10-23T07:23:24;18.10;99.90
14531;DHT22;7352;50.866;4.366;2022-10-23T07:25:51;18.10;99.90
14531;DHT22;7352;50.866;4.366;2022-10-23T07:28:18;18.20;99.90
14531;DHT22;7352;50.866;4.366;2022-10-23T07:30:55;18.20;99.90
14531;DHT22;7352;50.866;4.366;2022-10-23T07:33:23;18.30;99.90
14531;DHT22;7352;50.866;4.366;2022-10-23T07:35:50;18.30;99.90
14531;DHT22;7352;50.866;4.366;2022-10-23T07:38:17;18.30;99.90
14531;DHT22;7352;50.866;4.366;2022-10-23T07:40:44;18.40;99.90
14531;DHT22;7352;50.866;4.366;2022-10-23T07:43:11;18.40;99.90
14531;DHT22;7352;50.866;4.366;2022-10-23T07:45:38;18.60;99.90
14531;DHT22;7352;50.866;4.366;2022-10-23T07:48:05;18.50;99.90
14531;DHT22;7352;50.866;4.366;2022-10-23T07:50:36;18.50;99.90
14531;DHT22;7352;50.866;4.366;2022-10-23T07:53:03;18.60;99.90
14531;DHT22;7352;50.866;4.366;2022-10-23T07:55:30;18.60;99.90
14531;DHT22;7352;50.866;4.366;2022-10-23T07:57:57;18.70;99.90
14531;DHT22;7352;50.866;4.366;2022-10-23T08:00:24;18.70;99.90
14531;DHT22;7352;50.866;4.366;2022-10-23T08:02:51;18.70;99.90
14531;DHT22;7352;50.866;4.366;2022-10-23T08:05:18;18.80;99.90
14531;DHT22;7352;50.866;4.366;2022-10-23T08:07:46;18.70;99.90
14531;DHT22;7352;50.866;4.366;2022-10-23T08:10:13;18.70;99.90
14531;DHT22;7352;50.866;4.366;2022-10-23T08:12:40;18.60;99.90
14531;DHT22;7352;50.866;4.366;2022-10-23T08:15:08;18.70;99.90
14531;DHT22;7352;50.866;4.366;2022-10-23T08:17:35;18.70;99.90
14531;DHT22;7352;50.866;4.366;2022-10-23T08:20:04;18.80;99.90
14531;DHT22;7352;50.866;4.366;2022-10-23T08:22:31;18.90;99.90
14531;DHT22;7352;50.866;4.366;2022-10-23T08:25:02;18.90;99.90
14531;DHT22;7352;50.866;4.366;2022-10-23T08:27:29;18.90;99.90
14531;DHT22;7352;50.866;4.366;2022-10-23T08:29:56;19.00;99.90
14531;DHT22;7352;50.866;4.366;2022-10-23T08:32:23;19.10;99.90
14531;DHT22;7352;50.866;4.366;2022-10-23T08:34:50;19.00;99.90
14531;DHT22;7352;50.866;4.366;2022-10-23T08:37:17;19.00;99.90
14531;DHT22;7352;50.866;4.366;2022-10-23T08:39:43;19.00;99.90
14531;DHT22;7352;50.866;4.366;2022-10-23T08:42:19;18.90;99.90
14531;DHT22;7352;50.866;4.366;2022-10-23T08:44:54;19.00;99.90
14531;DHT22;7352;50.866;4.366;2022-10-23T08:47:27;19.00;99.90
14531;DHT22;7352;50.866;4.366;2022-10-23T08:49:59;19.10;99.90
14531;DHT22;7352;50.866;4.366;2022-10-23T08:52:34;19.10;99.90
14531;DHT22;7352;50.866;4.366;2022-10-23T08:55:12;19.20;99.90
14531;DHT22;7352;50.866;4.366;2022-10-23T08:57:44;19.20;99.90
14531;DHT22;7352;50.866;4.366;2022-10-23T09:00:14;19.30;99.90
14531;DHT22;7352;50.866;4.366;2022-10-23T09:02:44;19.30;99.90
14531;DHT22;7352;50.866;4.366;2022-10-23T09:05:14;19.20;99.90
14531;DHT22;7352;50.866;4.366;2022-10-23T09:07:55;19.10;99.90
14531;DHT22;7352;50.866;4.366;2022-10-23T09:10:40;19.20;99.90
14531;DHT22;7352;50.866;4.366;2022-10-23T09:13:25;19.30;99.90
14531;DHT22;7352;50.866;4.366;2022-10-23T09:16:00;19.30;99.90
14531;DHT22;7352;50.866;4.366;2022-10-23T09:18:31;19.20;99.90
14531;DHT22;7352;50.866;4.366;2022-10-23T09:20:58;19.30;99.90
14531;DHT22;7352;50.866;4.366;2022-10-23T09:23:25;19.30;99.90
14531;DHT22;7352;50.866;4.366;2022-10-23T09:25:52;19.40;99.90
14531;DHT22;7352;50.866;4.366;2022-10-23T09:28:25;19.50;99.90
14531;DHT22;7352;50.866;4.366;2022-10-23T09:30:52;19.70;99.90
14531;DHT22;7352;50.866;4.366;2022-10-23T09:33:21;19.50;99.90
14531;DHT22;7352;50.866;4.366;2022-10-23T09:35:53;19.60;99.90
14531;DHT22;7352;50.866;4.366;2022-10-23T09:38:27;19.70;99.90
14531;DHT22;7352;50.866;4.366;2022-10-23T09:40:54;19.80;99.90
14531;DHT22;7352;50.866;4.366;2022-10-23T09:43:20;20.00;99.90
14531;DHT22;7352;50.866;4.366;2022-10-23T09:46:00;20.00;99.90
14531;DHT22;7352;50.866;4.366;2022-10-23T09:48:29;20.00;99.90
14531;DHT22;7352;50.866;4.366;2022-10-23T09:50:58;20.10;99.90
14531;DHT22;7352;50.866;4.366;2022-10-23T09:53:34;20.20;99.90
14531;DHT22;7352;50.866;4.366;2022-10-23T09:56:24;20.30;99.90
14531;DHT22;7352;50.866;4.366;2022-10-23T09:58:54;20.30;99.90
14531;DHT22;7352;50.866;4.366;2022-10-23T10:01:24;20.20;99.90
14531;DHT22;7352;50.866;4.366;2022-10-23T10:03:52;20.30;99.90
14531;DHT22;7352;50.866;4.366;2022-10-23T10:06:26;20.20;99.90
14531;DHT22;7352;50.866;4.366;2022-10-23T10:08:55;20.20;99.90
14531;DHT22;7352;50.866;4.366;2022-10-23T10:11:27;20.30;99.90
14531;DHT22;7352;50.866;4.366;2022-10-23T10:14:08;20.30;99.90
14531;DHT22;7352;50.866;4.366;2022-10-23T10:16:43;20.40;99.90
14531;DHT22;7352;50.866;4.366;2022-10-23T10:19:35;20.50;99.90
14531;DHT22;7352;50.866;4.366;2022-10-23T10:22:15;20.60;99.90
14531;DHT22;7352;50.866;4.366;2022-10-23T10:24:49;20.70;99.90
14531;DHT22;7352;50.866;4.366;2022-10-23T10:27:30;20.60;99.90
14531;DHT22;7352;50.866;4.366;2022-10-23T10:30:09;20.60;99.90
14531;DHT22;7352;50.866;4.366;2022-10-23T10:32:44;20.60;99.90
14531;DHT22;7352;50.866;4.366;2022-10-23T10:35:32;20.80;99.90
14531;DHT22;7352;50.866;4.366;2022-10-23T10:41:33;20.90;99.90
14531;DHT22;7352;50.866;4.366;2022-10-23T10:44:27;20.80;99.90
14531;DHT22;7352;50.866;4.366;2022-10-23T10:46:58;20.70;99.90
14531;DHT22;7352;50.866;4.366;2022-10-23T10:49:35;20.80;99.90
14531;DHT22;7352;50.866;4.366;2022-10-23T10:52:11;20.70;99.90
14531;DHT22;7352;50.866;4.366;2022-10-23T10:54:49;20.60;99.90
14531;DHT22;7352;50.866;4.366;2022-10-23T10:57:29;20.70;99.90
14531;DHT22;7352;50.866;4.366;2022-10-23T10:59:59;20.90;99.90
14531;DHT22;7352;50.866;4.366;2022-10-23T11:02:28;21.00;99.90
14531;DHT22;7352;50.866;4.366;2022-10-23T11:05:12;21.00;99.90
14531;DHT22;7352;50.866;4.366;2022-10-23T11:07:47;20.90;99.90
14531;DHT22;7352;50.866;4.366;2022-10-23T11:10:17;20.80;99.90
14531;DHT22;7352;50.866;4.366;2022-10-23T11:12:45;20.80;99.90
14531;DHT22;7352;50.866;4.366;2022-10-23T11:15:14;20.70;99.90
14531;DHT22;7352;50.866;4.366;2022-10-23T11:17:45;20.70;99.90
14531;DHT22;7352;50.866;4.366;2022-10-23T11:20:29;20.90;99.90
14531;DHT22;7352;50.866;4.366;2022-10-23T11:23:08;21.00;99.90
14531;DHT22;7352;50.866;4.366;2022-10-23T11:26:00;21.20;99.90
14531;DHT22;7352;50.866;4.366;2022-10-23T11:28:41;21.30;99.90
14531;DHT22;7352;50.866;4.366;2022-10-23T11:31:19;21.40;99.90
14531;DHT22;7352;50.866;4.366;2022-10-23T11:34:21;21.30;99.90
14531;DHT22;7352;50.866;4.366;2022-10-23T11:36:58;21.50;99.90
14531;DHT22;7352;50.866;4.366;2022-10-23T11:39:27;21.60;99.90
14531;DHT22;7352;50.866;4.366;2022-10-23T11:41:57;21.70;99.90
14531;DHT22;7352;50.866;4.366;2022-10-23T11:44:40;21.80;99.90
14531;DHT22;7352;50.866;4.366;2022-10-23T11:47:27;21.80;99.90
14531;DHT22;7352;50.866;4.366;2022-10-23T11:50:24;21.80;99.90
14531;DHT22;7352;50.866;4.366;2022-10-23T11:52:56;21.80;99.90
14531;DHT22;7352;50.866;4.366;2022-10-23T11:55:26;22.10;99.90
14531;DHT22;7352;50.866;4.366;2022-10-23T11:58:12;22.20;99.90
14531;DHT22;7352;50.866;4.366;2022-10-23T12:00:54;22.10;99.90
14531;DHT22;7352;50.866;4.366;2022-10-23T12:03:26;22.00;99.90
14531;DHT22;7352;50.866;4.366;2022-10-23T12:06:01;21.90;99.90
14531;DHT22;7352;50.866;4.366;2022-10-23T12:08:32;21.90;99.90
14531;DHT22;7352;50.866;4.366;2022-10-23T12:10:59;21.90;99.90
14531;DHT22;7352;50.866;4.366;2022-10-23T12:16:15;22.00;99.90
14531;DHT22;7352;50.866;4.366;2022-10-23T12:18:47;22.10;99.90
14531;DHT22;7352;50.866;4.366;2022-10-23T12:21:18;22.20;99.90
14531;DHT22;7352;50.866;4.366;2022-10-23T12:24:05;22.20;99.90
14531;DHT22;7352;50.866;4.366;2022-10-23T12:26:54;22.30;99.90
14531;DHT22;7352;50.866;4.366;2022-10-23T12:29:38;22.50;99.90
14531;DHT22;7352;50.866;4.366;2022-10-23T12:32:21;22.60;99.90
14531;DHT22;7352;50.866;4.366;2022-10-23T12:35:05;22.70;99.90
14531;DHT22;7352;50.866;4.366;2022-10-23T12:38:00;22.70;99.90
14531;DHT22;7352;50.866;4.366;2022-10-23T12:40:33;22.70;99.90
14531;DHT22;7352;50.866;4.366;2022-10-23T12:43:15;22.80;99.90
14531;DHT22;7352;50.866;4.366;2022-10-23T12:45:46;23.10;99.90
14531;DHT22;7352;50.866;4.366;2022-10-23T12:48:18;23.30;99.90
14531;DHT22;7352;50.866;4.366;2022-10-23T12:50:48;23.20;99.90
14531;DHT22;7352;50.866;4.366;2022-10-23T12:53:17;23.40;99.90
14531;DHT22;7352;50.866;4.366;2022-10-23T12:55:50;23.50;99.90
14531;DHT22;7352;50.866;4.366;2022-10-23T12:58:20;23.60;99.90
14531;DHT22;7352;50.866;4.366;2022-10-23T13:00:52;23.70;99.90
14531;DHT22;7352;50.866;4.366;2022-10-23T13:03:21;23.70;99.90
14531;DHT22;7352;50.866;4.366;2022-10-23T13:05:51;23.50;99.90
14531;DHT22;7352;50.866;4.366;2022-10-23T13:08:20;23.40;99.90
14531;DHT22;7352;50.866;4.366;2022-10-23T13:10:49;23.40;99.90
14531;DHT22;7352;50.866;4.366;2022-10-23T13:13:21;23.30;99.90
14531;DHT22;7352;50.866;4.366;2022-10-23T13:15:49;23.20;99.90
14531;DHT22;7352;50.866;4.366;2022-10-23T13:18:16;23.20;99.90
14531;DHT22;7352;50.866;4.366;2022-10-23T13:20:55;23.00;99.90
14531;DHT22;7352;50.866;4.366;2022-10-23T13:23:28;23.00;99.90
14531;DHT22;7352;50.866;4.366;2022-10-23T13:26:03;22.90;99.90
14531;DHT22;7352;50.866;4.366;2022-10-23T13:28:33;22.90;99.90
14531;DHT22;7352;50.866;4.366;2022-10-23T13:31:21;23.00;99.90
14531;DHT22;7352;50.866;4.366;2022-10-23T13:34:02;23.00;99.90
14531;DHT22;7352;50.866;4.366;2022-10-23T13:36:31;23.00;99.90
14531;DHT22;7352;50.866;4.366;2022-10-23T13:39:03;22.90;99.90
14531;DHT22;7352;50.866;4.366;2022-10-23T13:41:36;22.80;99.90
14531;DHT22;7352;50.866;4.366;2022-10-23T13:44:04;22.90;99.90
14531;DHT22;7352;50.866;4.366;2022-10-23T13:46:34;22.80;99.90
14531;DHT22;7352;50.866;4.366;2022-10-23T13:49:01;22.80;99.90
14531;DHT22;7352;50.866;4.366;2022-10-23T13:51:39;22.70;99.90
14531;DHT22;7352;50.866;4.366;2022-10-23T13:54:14;22.70;99.90
14531;DHT22;7352;50.866;4.366;2022-10-23T13:56:43;22.50;99.90
14531;DHT22;7352;50.866;4.366;2022-10-23T13:59:12;22.40;99.90
14531;DHT22;7352;50.866;4.366;2022-10-23T14:01:51;22.50;99.90
14531;DHT22;7352;50.866;4.366;2022-10-23T14:04:29;22.60;99.90
14531;DHT22;7352;50.866;4.366;2022-10-23T14:06:57;22.60;99.90
14531;DHT22;7352;50.866;4.366;2022-10-23T14:09:26;22.60;99.90
14531;DHT22;7352;50.866;4.366;2022-10-23T14:11:55;22.60;99.90
14531;DHT22;7352;50.866;4.366;2022-10-23T14:14:22;22.60;99.90
14531;DHT22;7352;50.866;4.366;2022-10-23T14:16:49;22.60;99.90
14531;DHT22;7352;50.866;4.366;2022-10-23T14:19:17;22.60;99.90
14531;DHT22;7352;50.866;4.366;2022-10-23T14:21:45;22.60;99.90
14531;DHT22;7352;50.866;4.366;2022-10-23T14:24:12;22.70;99.90
14531;DHT22;7352;50.866;4.366;2022-10-23T14:26:41;22.80;99.90
14531;DHT22;7352;50.866;4.366;2022-10-23T14:29:09;22.80;99.90
14531;DHT22;7352;50.866;4.366;2022-10-23T14:31:36;22.80;99.90
14531;DHT22;7352;50.866;4.366;2022-10-23T14:34:03;22.70;99.90
14531;DHT22;7352;50.866;4.366;2022-10-23T14:36:31;22.70;99.90
14531;DHT22;7352;50.866;4.366;2022-10-23T14:38:59;22.80;99.90
14531;DHT22;7352;50.866;4.366;2022-10-23T14:41:32;22.80;99.90
14531;DHT22;7352;50.866;4.366;2022-10-23T14:44:01;22.90;99.90
14531;DHT22;7352;50.866;4.366;2022-10-23T14:46:31;22.70;99.90
14531;DHT22;7352;50.866;4.366;2022-10-23T14:49:02;22.60;99.90
14531;DHT22;7352;50.866;4.366;2022-10-23T14:51:39;22.60;99.90
14531;DHT22;7352;50.866;4.366;2022-10-23T14:54:08;22.60;99.90
14531;DHT22;7352;50.866;4.366;2022-10-23T14:56:37;22.70;99.90
14531;DHT22;7352;50.866;4.366;2022-10-23T14:59:05;22.60;99.90
14531;DHT22;7352;50.866;4.366;2022-10-23T15:01:38;22.40;99.90
14531;DHT22;7352;50.866;4.366;2022-10-23T15:04:05;22.40;99.90
14531;DHT22;7352;50.866;4.366;2022-10-23T15:06:33;22.40;99.90
14531;DHT22;7352;50.866;4.366;2022-10-23T15:09:01;22.40;99.90
14531;DHT22;7352;50.866;4.366;2022-10-23T15:11:29;22.40;99.90
14531;DHT22;7352;50.866;4.366;2022-10-23T15:13:58;22.40;99.90
14531;DHT22;7352;50.866;4.366;2022-10-23T15:16:26;22.40;99.90
14531;DHT22;7352;50.866;4.366;2022-10-23T15:18:54;22.30;99.90
14531;DHT22;7352;50.866;4.366;2022-10-23T15:21:21;22.30;99.90
14531;DHT22;7352;50.866;4.366;2022-10-23T15:23:48;22.20;99.90
14531;DHT22;7352;50.866;4.366;2022-10-23T15:26:17;22.20;99.90
14531;DHT22;7352;50.866;4.366;2022-10-23T15:28:51;22.20;99.90
14531;DHT22;7352;50.866;4.366;2022-10-23T15:31:42;22.20;99.90
14531;DHT22;7352;50.866;4.366;2022-10-23T15:34:13;22.00;99.90
14531;DHT22;7352;50.866;4.366;2022-10-23T15:36:41;21.90;99.90
14531;DHT22;7352;50.866;4.366;2022-10-23T15:39:12;21.90;99.90
14531;DHT22;7352;50.866;4.366;2022-10-23T15:41:40;21.90;99.90
14531;DHT22;7352;50.866;4.366;2022-10-23T15:44:11;21.90;99.90
14531;DHT22;7352;50.866;4.366;2022-10-23T15:46:39;21.90;99.90
14531;DHT22;7352;50.866;4.366;2022-10-23T15:49:06;21.90;99.90
14531;DHT22;7352;50.866;4.366;2022-10-23T15:51:36;21.90;99.90
14531;DHT22;7352;50.866;4.366;2022-10-23T15:54:05;21.80;99.90
14531;DHT22;7352;50.866;4.366;2022-10-23T15:56:33;21.70;99.90
14531;DHT22;7352;50.866;4.366;2022-10-23T15:59:01;21.80;99.90
14531;DHT22;7352;50.866;4.366;2022-10-23T16:01:28;21.80;99.90
14531;DHT22;7352;50.866;4.366;2022-10-23T16:03:55;21.60;99.90
14531;DHT22;7352;50.866;4.366;2022-10-23T16:06:22;21.60;99.90
14531;DHT22;7352;50.866;4.366;2022-10-23T16:08:50;21.50;99.90
14531;DHT22;7352;50.866;4.366;2022-10-23T16:11:20;21.50;99.90
14531;DHT22;7352;50.866;4.366;2022-10-23T16:13:48;21.50;99.90
14531;DHT22;7352;50.866;4.366;2022-10-23T16:16:16;21.60;99.90
14531;DHT22;7352;50.866;4.366;2022-10-23T16:18:44;21.50;99.90